<?xml version="1.0" encoding="UTF-8" standalone="no" ?>
<gpx xmlns="http://www.topografix.com/GPX/1/1" xmlns:xsi="http://www.w3.org/2001/XMLSchema-instance" xsi:schemaLocation="http://www.topografix.com/GPX/1/1 http://www.topografix.com/GPX/1/1/gpx.xsd" version="1.1" creator="VisuGPX - https://www.visugpx.com">
  <metadata>
    <name>83 - V -  SAINT ANTONIN</name>
    <desc><![CDATA[grp_trc:]]></desc>
  </metadata>
  <trk>
    <name><![CDATA[Saint Antonin]]></name>
    <cmt><![CDATA[Mentonne]]></cmt>
    <desc><![CDATA[comment ...]]></desc>
    <trkseg>
      <trkpt lat="43.51507" lon="6.28703">
        <ele>214</ele>
        <time>2022-06-17T06:50:08Z</time>
      </trkpt>
      <trkpt lat="43.51507" lon="6.28703">
        <ele>214</ele>
        <time>2022-06-17T06:50:09Z</time>
      </trkpt>
      <trkpt lat="43.51509" lon="6.287">
        <ele>214</ele>
        <time>2022-06-17T06:50:21Z</time>
      </trkpt>
      <trkpt lat="43.51518" lon="6.2869">
        <ele>217</ele>
        <time>2022-06-17T06:50:55Z</time>
      </trkpt>
      <trkpt lat="43.51517" lon="6.28684">
        <ele>217</ele>
        <time>2022-06-17T06:51:01Z</time>
      </trkpt>
      <trkpt lat="43.51517" lon="6.28679">
        <ele>216</ele>
        <time>2022-06-17T06:51:06Z</time>
      </trkpt>
      <trkpt lat="43.5152" lon="6.28676">
        <ele>215</ele>
        <time>2022-06-17T06:51:10Z</time>
      </trkpt>
      <trkpt lat="43.51524" lon="6.28676">
        <ele>216</ele>
        <time>2022-06-17T06:51:20Z</time>
      </trkpt>
      <trkpt lat="43.51526" lon="6.28672">
        <ele>217</ele>
        <time>2022-06-17T06:51:24Z</time>
      </trkpt>
      <trkpt lat="43.51529" lon="6.28675">
        <ele>216</ele>
        <time>2022-06-17T06:51:27Z</time>
      </trkpt>
      <trkpt lat="43.51532" lon="6.28681">
        <ele>214</ele>
        <time>2022-06-17T06:51:31Z</time>
      </trkpt>
      <trkpt lat="43.51535" lon="6.28684">
        <ele>215</ele>
        <time>2022-06-17T06:51:37Z</time>
      </trkpt>
      <trkpt lat="43.51557" lon="6.28694">
        <ele>213</ele>
        <time>2022-06-17T06:52:01Z</time>
      </trkpt>
      <trkpt lat="43.51592" lon="6.28716">
        <ele>212</ele>
        <time>2022-06-17T06:52:33Z</time>
      </trkpt>
      <trkpt lat="43.51597" lon="6.28719">
        <ele>212</ele>
        <time>2022-06-17T06:52:37Z</time>
      </trkpt>
      <trkpt lat="43.51605" lon="6.2873">
        <ele>212</ele>
        <time>2022-06-17T06:52:47Z</time>
      </trkpt>
      <trkpt lat="43.51608" lon="6.28734">
        <ele>211</ele>
        <time>2022-06-17T06:52:51Z</time>
      </trkpt>
      <trkpt lat="43.51625" lon="6.28761">
        <ele>214</ele>
        <time>2022-06-17T06:53:08Z</time>
      </trkpt>
      <trkpt lat="43.51657" lon="6.28798">
        <ele>216</ele>
        <time>2022-06-17T06:53:38Z</time>
      </trkpt>
      <trkpt lat="43.51684" lon="6.28824">
        <ele>221</ele>
        <time>2022-06-17T06:54:02Z</time>
      </trkpt>
      <trkpt lat="43.51687" lon="6.28827">
        <ele>220</ele>
        <time>2022-06-17T06:54:05Z</time>
      </trkpt>
      <trkpt lat="43.5169" lon="6.28829">
        <ele>220</ele>
        <time>2022-06-17T06:54:08Z</time>
      </trkpt>
      <trkpt lat="43.51702" lon="6.28849">
        <ele>220</ele>
        <time>2022-06-17T06:54:23Z</time>
      </trkpt>
      <trkpt lat="43.51702" lon="6.28855">
        <ele>221</ele>
        <time>2022-06-17T06:54:26Z</time>
      </trkpt>
      <trkpt lat="43.5171" lon="6.28878">
        <ele>222</ele>
        <time>2022-06-17T06:54:42Z</time>
      </trkpt>
      <trkpt lat="43.51712" lon="6.28883">
        <ele>222</ele>
        <time>2022-06-17T06:54:45Z</time>
      </trkpt>
      <trkpt lat="43.51716" lon="6.28886">
        <ele>221</ele>
        <time>2022-06-17T06:54:49Z</time>
      </trkpt>
      <trkpt lat="43.5172" lon="6.2889">
        <ele>221</ele>
        <time>2022-06-17T06:54:53Z</time>
      </trkpt>
      <trkpt lat="43.51737" lon="6.28903">
        <ele>219</ele>
        <time>2022-06-17T06:55:10Z</time>
      </trkpt>
      <trkpt lat="43.5174" lon="6.28906">
        <ele>220</ele>
        <time>2022-06-17T06:55:13Z</time>
      </trkpt>
      <trkpt lat="43.51744" lon="6.28909">
        <ele>220</ele>
        <time>2022-06-17T06:55:16Z</time>
      </trkpt>
      <trkpt lat="43.51755" lon="6.28922">
        <ele>224</ele>
        <time>2022-06-17T06:55:25Z</time>
      </trkpt>
      <trkpt lat="43.51769" lon="6.2893">
        <ele>225</ele>
        <time>2022-06-17T06:55:37Z</time>
      </trkpt>
      <trkpt lat="43.51777" lon="6.28933">
        <ele>225</ele>
        <time>2022-06-17T06:55:43Z</time>
      </trkpt>
      <trkpt lat="43.51814" lon="6.28948">
        <ele>231</ele>
        <time>2022-06-17T06:56:15Z</time>
      </trkpt>
      <trkpt lat="43.51823" lon="6.28953">
        <ele>230</ele>
        <time>2022-06-17T06:56:23Z</time>
      </trkpt>
      <trkpt lat="43.51862" lon="6.28956">
        <ele>233</ele>
        <time>2022-06-17T06:56:52Z</time>
      </trkpt>
      <trkpt lat="43.51872" lon="6.28951">
        <ele>233</ele>
        <time>2022-06-17T06:57:00Z</time>
      </trkpt>
      <trkpt lat="43.51881" lon="6.28947">
        <ele>234</ele>
        <time>2022-06-17T06:57:08Z</time>
      </trkpt>
      <trkpt lat="43.51897" lon="6.28936">
        <ele>234</ele>
        <time>2022-06-17T06:57:23Z</time>
      </trkpt>
      <trkpt lat="43.51907" lon="6.28931">
        <ele>235</ele>
        <time>2022-06-17T06:57:32Z</time>
      </trkpt>
      <trkpt lat="43.51916" lon="6.28935">
        <ele>235</ele>
        <time>2022-06-17T06:57:41Z</time>
      </trkpt>
      <trkpt lat="43.51926" lon="6.28936">
        <ele>237</ele>
        <time>2022-06-17T06:57:50Z</time>
      </trkpt>
      <trkpt lat="43.51936" lon="6.28938">
        <ele>238</ele>
        <time>2022-06-17T06:57:59Z</time>
      </trkpt>
      <trkpt lat="43.51974" lon="6.28929">
        <ele>242</ele>
        <time>2022-06-17T06:58:32Z</time>
      </trkpt>
      <trkpt lat="43.51984" lon="6.28929">
        <ele>241</ele>
        <time>2022-06-17T06:58:41Z</time>
      </trkpt>
      <trkpt lat="43.52021" lon="6.28925">
        <ele>241</ele>
        <time>2022-06-17T06:59:12Z</time>
      </trkpt>
      <trkpt lat="43.5205" lon="6.28924">
        <ele>244</ele>
        <time>2022-06-17T06:59:37Z</time>
      </trkpt>
      <trkpt lat="43.52059" lon="6.28924">
        <ele>245</ele>
        <time>2022-06-17T06:59:45Z</time>
      </trkpt>
      <trkpt lat="43.52068" lon="6.28926">
        <ele>247</ele>
        <time>2022-06-17T06:59:53Z</time>
      </trkpt>
      <trkpt lat="43.521" lon="6.28924">
        <ele>250</ele>
        <time>2022-06-17T07:00:23Z</time>
      </trkpt>
      <trkpt lat="43.52128" lon="6.28903">
        <ele>259</ele>
        <time>2022-06-17T07:00:53Z</time>
      </trkpt>
      <trkpt lat="43.52148" lon="6.28883">
        <ele>258</ele>
        <time>2022-06-17T07:01:15Z</time>
      </trkpt>
      <trkpt lat="43.52156" lon="6.28879">
        <ele>258</ele>
        <time>2022-06-17T07:01:23Z</time>
      </trkpt>
      <trkpt lat="43.5216" lon="6.28878">
        <ele>258</ele>
        <time>2022-06-17T07:01:27Z</time>
      </trkpt>
      <trkpt lat="43.52164" lon="6.28875">
        <ele>258</ele>
        <time>2022-06-17T07:01:31Z</time>
      </trkpt>
      <trkpt lat="43.52177" lon="6.28863">
        <ele>257</ele>
        <time>2022-06-17T07:01:46Z</time>
      </trkpt>
      <trkpt lat="43.52184" lon="6.28856">
        <ele>256</ele>
        <time>2022-06-17T07:01:54Z</time>
      </trkpt>
      <trkpt lat="43.52188" lon="6.28852">
        <ele>256</ele>
        <time>2022-06-17T07:01:58Z</time>
      </trkpt>
      <trkpt lat="43.52194" lon="6.2884">
        <ele>259</ele>
        <time>2022-06-17T07:02:08Z</time>
      </trkpt>
      <trkpt lat="43.52197" lon="6.28835">
        <ele>259</ele>
        <time>2022-06-17T07:02:12Z</time>
      </trkpt>
      <trkpt lat="43.52207" lon="6.28825">
        <ele>261</ele>
        <time>2022-06-17T07:02:23Z</time>
      </trkpt>
      <trkpt lat="43.52212" lon="6.28816">
        <ele>259</ele>
        <time>2022-06-17T07:02:30Z</time>
      </trkpt>
      <trkpt lat="43.52213" lon="6.2881">
        <ele>259</ele>
        <time>2022-06-17T07:02:34Z</time>
      </trkpt>
      <trkpt lat="43.52217" lon="6.28808">
        <ele>259</ele>
        <time>2022-06-17T07:02:36Z</time>
      </trkpt>
      <trkpt lat="43.52222" lon="6.28809">
        <ele>260</ele>
        <time>2022-06-17T07:02:41Z</time>
      </trkpt>
      <trkpt lat="43.52225" lon="6.28805">
        <ele>262</ele>
        <time>2022-06-17T07:02:45Z</time>
      </trkpt>
      <trkpt lat="43.52227" lon="6.288">
        <ele>265</ele>
        <time>2022-06-17T07:02:49Z</time>
      </trkpt>
      <trkpt lat="43.5223" lon="6.28797">
        <ele>264</ele>
        <time>2022-06-17T07:02:53Z</time>
      </trkpt>
      <trkpt lat="43.52232" lon="6.28792">
        <ele>264</ele>
        <time>2022-06-17T07:02:58Z</time>
      </trkpt>
      <trkpt lat="43.5224" lon="6.2878">
        <ele>264</ele>
        <time>2022-06-17T07:03:11Z</time>
      </trkpt>
      <trkpt lat="43.52243" lon="6.28776">
        <ele>264</ele>
        <time>2022-06-17T07:03:16Z</time>
      </trkpt>
      <trkpt lat="43.52249" lon="6.28769">
        <ele>265</ele>
        <time>2022-06-17T07:03:24Z</time>
      </trkpt>
      <trkpt lat="43.52261" lon="6.28759">
        <ele>267</ele>
        <time>2022-06-17T07:03:38Z</time>
      </trkpt>
      <trkpt lat="43.52267" lon="6.28749">
        <ele>265</ele>
        <time>2022-06-17T07:03:48Z</time>
      </trkpt>
      <trkpt lat="43.52275" lon="6.28743">
        <ele>268</ele>
        <time>2022-06-17T07:03:56Z</time>
      </trkpt>
      <trkpt lat="43.52284" lon="6.28738">
        <ele>274</ele>
        <time>2022-06-17T07:04:06Z</time>
      </trkpt>
      <trkpt lat="43.52298" lon="6.2872">
        <ele>277</ele>
        <time>2022-06-17T07:04:25Z</time>
      </trkpt>
      <trkpt lat="43.52305" lon="6.28712">
        <ele>277</ele>
        <time>2022-06-17T07:04:35Z</time>
      </trkpt>
      <trkpt lat="43.52312" lon="6.28703">
        <ele>279</ele>
        <time>2022-06-17T07:04:44Z</time>
      </trkpt>
      <trkpt lat="43.52317" lon="6.28692">
        <ele>280</ele>
        <time>2022-06-17T07:04:53Z</time>
      </trkpt>
      <trkpt lat="43.52324" lon="6.28683">
        <ele>283</ele>
        <time>2022-06-17T07:05:03Z</time>
      </trkpt>
      <trkpt lat="43.52333" lon="6.28676">
        <ele>284</ele>
        <time>2022-06-17T07:05:14Z</time>
      </trkpt>
      <trkpt lat="43.52346" lon="6.28657">
        <ele>288</ele>
        <time>2022-06-17T07:05:32Z</time>
      </trkpt>
      <trkpt lat="43.52352" lon="6.28649">
        <ele>291</ele>
        <time>2022-06-17T07:05:40Z</time>
      </trkpt>
      <trkpt lat="43.52364" lon="6.28627">
        <ele>293</ele>
        <time>2022-06-17T07:05:58Z</time>
      </trkpt>
      <trkpt lat="43.52367" lon="6.28616">
        <ele>294</ele>
        <time>2022-06-17T07:06:08Z</time>
      </trkpt>
      <trkpt lat="43.52368" lon="6.28608">
        <ele>296</ele>
        <time>2022-06-17T07:06:14Z</time>
      </trkpt>
      <trkpt lat="43.52372" lon="6.28606">
        <ele>297</ele>
        <time>2022-06-17T07:07:48Z</time>
      </trkpt>
      <trkpt lat="43.52371" lon="6.28601">
        <ele>297</ele>
        <time>2022-06-17T07:07:52Z</time>
      </trkpt>
      <trkpt lat="43.52375" lon="6.28599">
        <ele>297</ele>
        <time>2022-06-17T07:07:55Z</time>
      </trkpt>
      <trkpt lat="43.52384" lon="6.28582">
        <ele>296</ele>
        <time>2022-06-17T07:08:11Z</time>
      </trkpt>
      <trkpt lat="43.52385" lon="6.28578">
        <ele>296</ele>
        <time>2022-06-17T07:08:15Z</time>
      </trkpt>
      <trkpt lat="43.5239" lon="6.28559">
        <ele>297</ele>
        <time>2022-06-17T07:08:28Z</time>
      </trkpt>
      <trkpt lat="43.52397" lon="6.28524">
        <ele>296</ele>
        <time>2022-06-17T07:08:51Z</time>
      </trkpt>
      <trkpt lat="43.52401" lon="6.28515">
        <ele>296</ele>
        <time>2022-06-17T07:08:58Z</time>
      </trkpt>
      <trkpt lat="43.52401" lon="6.2851">
        <ele>295</ele>
        <time>2022-06-17T07:09:01Z</time>
      </trkpt>
      <trkpt lat="43.52403" lon="6.28501">
        <ele>295</ele>
        <time>2022-06-17T07:09:07Z</time>
      </trkpt>
      <trkpt lat="43.52404" lon="6.28495">
        <ele>295</ele>
        <time>2022-06-17T07:09:11Z</time>
      </trkpt>
      <trkpt lat="43.52411" lon="6.28471">
        <ele>294</ele>
        <time>2022-06-17T07:09:26Z</time>
      </trkpt>
      <trkpt lat="43.52413" lon="6.28465">
        <ele>293</ele>
        <time>2022-06-17T07:09:30Z</time>
      </trkpt>
      <trkpt lat="43.52415" lon="6.28454">
        <ele>293</ele>
        <time>2022-06-17T07:09:36Z</time>
      </trkpt>
      <trkpt lat="43.52419" lon="6.28445">
        <ele>293</ele>
        <time>2022-06-17T07:09:42Z</time>
      </trkpt>
      <trkpt lat="43.5242" lon="6.2844">
        <ele>292</ele>
        <time>2022-06-17T07:09:45Z</time>
      </trkpt>
      <trkpt lat="43.52421" lon="6.28434">
        <ele>291</ele>
        <time>2022-06-17T07:09:49Z</time>
      </trkpt>
      <trkpt lat="43.52423" lon="6.28429">
        <ele>290</ele>
        <time>2022-06-17T07:09:52Z</time>
      </trkpt>
      <trkpt lat="43.5245" lon="6.28392">
        <ele>289</ele>
        <time>2022-06-17T07:10:23Z</time>
      </trkpt>
      <trkpt lat="43.52469" lon="6.28364">
        <ele>287</ele>
        <time>2022-06-17T07:10:45Z</time>
      </trkpt>
      <trkpt lat="43.52481" lon="6.28339">
        <ele>287</ele>
        <time>2022-06-17T07:11:03Z</time>
      </trkpt>
      <trkpt lat="43.52483" lon="6.28335">
        <ele>287</ele>
        <time>2022-06-17T07:11:06Z</time>
      </trkpt>
      <trkpt lat="43.52489" lon="6.28329">
        <ele>287</ele>
        <time>2022-06-17T07:11:12Z</time>
      </trkpt>
      <trkpt lat="43.52502" lon="6.28323">
        <ele>286</ele>
        <time>2022-06-17T07:11:24Z</time>
      </trkpt>
      <trkpt lat="43.52514" lon="6.2832">
        <ele>286</ele>
        <time>2022-06-17T07:11:34Z</time>
      </trkpt>
      <trkpt lat="43.52521" lon="6.28318">
        <ele>286</ele>
        <time>2022-06-17T07:11:40Z</time>
      </trkpt>
      <trkpt lat="43.52537" lon="6.28283">
        <ele>282</ele>
        <time>2022-06-17T07:12:04Z</time>
      </trkpt>
      <trkpt lat="43.52539" lon="6.28267">
        <ele>282</ele>
        <time>2022-06-17T07:12:13Z</time>
      </trkpt>
      <trkpt lat="43.52542" lon="6.28258">
        <ele>282</ele>
        <time>2022-06-17T07:12:19Z</time>
      </trkpt>
      <trkpt lat="43.52543" lon="6.28253">
        <ele>282</ele>
        <time>2022-06-17T07:12:22Z</time>
      </trkpt>
      <trkpt lat="43.52552" lon="6.2824">
        <ele>282</ele>
        <time>2022-06-17T07:12:33Z</time>
      </trkpt>
      <trkpt lat="43.52561" lon="6.28222">
        <ele>282</ele>
        <time>2022-06-17T07:12:47Z</time>
      </trkpt>
      <trkpt lat="43.52566" lon="6.28208">
        <ele>281</ele>
        <time>2022-06-17T07:12:57Z</time>
      </trkpt>
      <trkpt lat="43.52567" lon="6.28203">
        <ele>281</ele>
        <time>2022-06-17T07:13:01Z</time>
      </trkpt>
      <trkpt lat="43.5256" lon="6.28199">
        <ele>283</ele>
        <time>2022-06-17T07:13:08Z</time>
      </trkpt>
      <trkpt lat="43.52555" lon="6.28198">
        <ele>284</ele>
        <time>2022-06-17T07:13:19Z</time>
      </trkpt>
      <trkpt lat="43.52552" lon="6.28186">
        <ele>287</ele>
        <time>2022-06-17T07:13:35Z</time>
      </trkpt>
      <trkpt lat="43.52552" lon="6.28172">
        <ele>293</ele>
        <time>2022-06-17T07:13:49Z</time>
      </trkpt>
      <trkpt lat="43.52545" lon="6.28165">
        <ele>293</ele>
        <time>2022-06-17T07:14:05Z</time>
      </trkpt>
      <trkpt lat="43.52538" lon="6.28175">
        <ele>292</ele>
        <time>2022-06-17T07:14:16Z</time>
      </trkpt>
      <trkpt lat="43.52532" lon="6.28186">
        <ele>285</ele>
        <time>2022-06-17T07:14:37Z</time>
      </trkpt>
      <trkpt lat="43.52523" lon="6.28186">
        <ele>282</ele>
        <time>2022-06-17T07:14:50Z</time>
      </trkpt>
      <trkpt lat="43.52514" lon="6.28181">
        <ele>277</ele>
        <time>2022-06-17T07:15:00Z</time>
      </trkpt>
      <trkpt lat="43.52509" lon="6.2817">
        <ele>277</ele>
        <time>2022-06-17T07:15:11Z</time>
      </trkpt>
      <trkpt lat="43.52512" lon="6.28145">
        <ele>278</ele>
        <time>2022-06-17T07:15:29Z</time>
      </trkpt>
      <trkpt lat="43.52511" lon="6.28133">
        <ele>276</ele>
        <time>2022-06-17T07:15:39Z</time>
      </trkpt>
      <trkpt lat="43.52502" lon="6.28132">
        <ele>274</ele>
        <time>2022-06-17T07:15:48Z</time>
      </trkpt>
      <trkpt lat="43.52493" lon="6.28131">
        <ele>274</ele>
        <time>2022-06-17T07:15:57Z</time>
      </trkpt>
      <trkpt lat="43.52488" lon="6.2812">
        <ele>264</ele>
        <time>2022-06-17T07:16:10Z</time>
      </trkpt>
      <trkpt lat="43.52483" lon="6.2811">
        <ele>266</ele>
        <time>2022-06-17T07:16:23Z</time>
      </trkpt>
      <trkpt lat="43.52474" lon="6.28107">
        <ele>275</ele>
        <time>2022-06-17T07:16:34Z</time>
      </trkpt>
      <trkpt lat="43.52468" lon="6.28098">
        <ele>277</ele>
        <time>2022-06-17T07:16:45Z</time>
      </trkpt>
      <trkpt lat="43.52461" lon="6.28089">
        <ele>279</ele>
        <time>2022-06-17T07:16:55Z</time>
      </trkpt>
      <trkpt lat="43.52459" lon="6.28076">
        <ele>288</ele>
        <time>2022-06-17T07:17:37Z</time>
      </trkpt>
      <trkpt lat="43.5245" lon="6.28071">
        <ele>288</ele>
        <time>2022-06-17T07:17:55Z</time>
      </trkpt>
      <trkpt lat="43.52431" lon="6.28059">
        <ele>274</ele>
        <time>2022-06-17T07:18:25Z</time>
      </trkpt>
      <trkpt lat="43.52424" lon="6.28049">
        <ele>270</ele>
        <time>2022-06-17T07:18:36Z</time>
      </trkpt>
      <trkpt lat="43.52418" lon="6.2804">
        <ele>268</ele>
        <time>2022-06-17T07:18:44Z</time>
      </trkpt>
      <trkpt lat="43.52412" lon="6.28031">
        <ele>264</ele>
        <time>2022-06-17T07:18:53Z</time>
      </trkpt>
      <trkpt lat="43.52409" lon="6.28027">
        <ele>263</ele>
        <time>2022-06-17T07:18:57Z</time>
      </trkpt>
      <trkpt lat="43.52404" lon="6.2802">
        <ele>260</ele>
        <time>2022-06-17T07:19:04Z</time>
      </trkpt>
      <trkpt lat="43.52379" lon="6.27985">
        <ele>255</ele>
        <time>2022-06-17T07:19:34Z</time>
      </trkpt>
      <trkpt lat="43.52376" lon="6.27982">
        <ele>255</ele>
        <time>2022-06-17T07:19:37Z</time>
      </trkpt>
      <trkpt lat="43.52366" lon="6.27974">
        <ele>254</ele>
        <time>2022-06-17T07:19:46Z</time>
      </trkpt>
      <trkpt lat="43.52356" lon="6.27965">
        <ele>254</ele>
        <time>2022-06-17T07:19:59Z</time>
      </trkpt>
      <trkpt lat="43.52353" lon="6.27956">
        <ele>255</ele>
        <time>2022-06-17T07:21:07Z</time>
      </trkpt>
      <trkpt lat="43.52352" lon="6.27951">
        <ele>255</ele>
        <time>2022-06-17T07:21:11Z</time>
      </trkpt>
      <trkpt lat="43.52351" lon="6.27947">
        <ele>254</ele>
        <time>2022-06-17T07:21:14Z</time>
      </trkpt>
      <trkpt lat="43.52332" lon="6.27923">
        <ele>249</ele>
        <time>2022-06-17T07:21:44Z</time>
      </trkpt>
      <trkpt lat="43.52312" lon="6.27897">
        <ele>246</ele>
        <time>2022-06-17T07:22:11Z</time>
      </trkpt>
      <trkpt lat="43.52309" lon="6.27894">
        <ele>245</ele>
        <time>2022-06-17T07:22:15Z</time>
      </trkpt>
      <trkpt lat="43.52292" lon="6.2787">
        <ele>249</ele>
        <time>2022-06-17T07:22:34Z</time>
      </trkpt>
      <trkpt lat="43.52291" lon="6.27865">
        <ele>248</ele>
        <time>2022-06-17T07:22:37Z</time>
      </trkpt>
      <trkpt lat="43.52282" lon="6.27855">
        <ele>248</ele>
        <time>2022-06-17T07:22:48Z</time>
      </trkpt>
      <trkpt lat="43.52281" lon="6.27851">
        <ele>249</ele>
        <time>2022-06-17T07:22:51Z</time>
      </trkpt>
      <trkpt lat="43.52277" lon="6.27839">
        <ele>251</ele>
        <time>2022-06-17T07:22:59Z</time>
      </trkpt>
      <trkpt lat="43.52276" lon="6.27834">
        <ele>251</ele>
        <time>2022-06-17T07:23:03Z</time>
      </trkpt>
      <trkpt lat="43.52274" lon="6.27829">
        <ele>251</ele>
        <time>2022-06-17T07:23:07Z</time>
      </trkpt>
      <trkpt lat="43.52272" lon="6.27825">
        <ele>250</ele>
        <time>2022-06-17T07:23:11Z</time>
      </trkpt>
      <trkpt lat="43.52271" lon="6.2782">
        <ele>247</ele>
        <time>2022-06-17T07:24:15Z</time>
      </trkpt>
      <trkpt lat="43.52274" lon="6.27815">
        <ele>247</ele>
        <time>2022-06-17T07:24:38Z</time>
      </trkpt>
      <trkpt lat="43.52278" lon="6.27812">
        <ele>247</ele>
        <time>2022-06-17T07:24:40Z</time>
      </trkpt>
      <trkpt lat="43.52277" lon="6.27806">
        <ele>247</ele>
        <time>2022-06-17T07:24:45Z</time>
      </trkpt>
      <trkpt lat="43.52263" lon="6.27765">
        <ele>248</ele>
        <time>2022-06-17T07:25:15Z</time>
      </trkpt>
      <trkpt lat="43.52261" lon="6.2776">
        <ele>249</ele>
        <time>2022-06-17T07:25:19Z</time>
      </trkpt>
      <trkpt lat="43.5226" lon="6.27755">
        <ele>248</ele>
        <time>2022-06-17T07:25:23Z</time>
      </trkpt>
      <trkpt lat="43.52255" lon="6.27734">
        <ele>248</ele>
        <time>2022-06-17T07:25:38Z</time>
      </trkpt>
      <trkpt lat="43.52253" lon="6.27729">
        <ele>248</ele>
        <time>2022-06-17T07:25:42Z</time>
      </trkpt>
      <trkpt lat="43.52248" lon="6.27713">
        <ele>250</ele>
        <time>2022-06-17T07:25:54Z</time>
      </trkpt>
      <trkpt lat="43.52239" lon="6.27678">
        <ele>255</ele>
        <time>2022-06-17T07:26:20Z</time>
      </trkpt>
      <trkpt lat="43.5224" lon="6.27671">
        <ele>255</ele>
        <time>2022-06-17T07:26:24Z</time>
      </trkpt>
      <trkpt lat="43.52238" lon="6.27667">
        <ele>255</ele>
        <time>2022-06-17T07:26:27Z</time>
      </trkpt>
      <trkpt lat="43.52236" lon="6.27663">
        <ele>255</ele>
        <time>2022-06-17T07:26:30Z</time>
      </trkpt>
      <trkpt lat="43.52229" lon="6.2765">
        <ele>255</ele>
        <time>2022-06-17T07:26:39Z</time>
      </trkpt>
      <trkpt lat="43.52226" lon="6.27649">
        <ele>255</ele>
        <time>2022-06-17T07:26:41Z</time>
      </trkpt>
      <trkpt lat="43.52222" lon="6.27648">
        <ele>256</ele>
        <time>2022-06-17T07:26:44Z</time>
      </trkpt>
      <trkpt lat="43.52218" lon="6.27647">
        <ele>256</ele>
        <time>2022-06-17T07:26:47Z</time>
      </trkpt>
      <trkpt lat="43.52215" lon="6.27646">
        <ele>259</ele>
        <time>2022-06-17T07:26:51Z</time>
      </trkpt>
      <trkpt lat="43.5221" lon="6.27629">
        <ele>257</ele>
        <time>2022-06-17T07:27:14Z</time>
      </trkpt>
      <trkpt lat="43.52207" lon="6.27604">
        <ele>255</ele>
        <time>2022-06-17T07:27:44Z</time>
      </trkpt>
      <trkpt lat="43.52206" lon="6.27591">
        <ele>257</ele>
        <time>2022-06-17T07:27:59Z</time>
      </trkpt>
      <trkpt lat="43.52205" lon="6.27577">
        <ele>258</ele>
        <time>2022-06-17T07:28:11Z</time>
      </trkpt>
      <trkpt lat="43.52203" lon="6.27565">
        <ele>258</ele>
        <time>2022-06-17T07:28:21Z</time>
      </trkpt>
      <trkpt lat="43.522" lon="6.27553">
        <ele>259</ele>
        <time>2022-06-17T07:28:41Z</time>
      </trkpt>
      <trkpt lat="43.52199" lon="6.2754">
        <ele>261</ele>
        <time>2022-06-17T07:29:00Z</time>
      </trkpt>
      <trkpt lat="43.52191" lon="6.27532">
        <ele>263</ele>
        <time>2022-06-17T07:29:13Z</time>
      </trkpt>
      <trkpt lat="43.52186" lon="6.27522">
        <ele>268</ele>
        <time>2022-06-17T07:29:24Z</time>
      </trkpt>
      <trkpt lat="43.52178" lon="6.27516">
        <ele>269</ele>
        <time>2022-06-17T07:29:36Z</time>
      </trkpt>
      <trkpt lat="43.52171" lon="6.27508">
        <ele>274</ele>
        <time>2022-06-17T07:29:49Z</time>
      </trkpt>
      <trkpt lat="43.52166" lon="6.27497">
        <ele>275</ele>
        <time>2022-06-17T07:29:58Z</time>
      </trkpt>
      <trkpt lat="43.52162" lon="6.27486">
        <ele>279</ele>
        <time>2022-06-17T07:30:08Z</time>
      </trkpt>
      <trkpt lat="43.52159" lon="6.27474">
        <ele>281</ele>
        <time>2022-06-17T07:30:22Z</time>
      </trkpt>
      <trkpt lat="43.5215" lon="6.27471">
        <ele>286</ele>
        <time>2022-06-17T07:30:36Z</time>
      </trkpt>
      <trkpt lat="43.52146" lon="6.2746">
        <ele>287</ele>
        <time>2022-06-17T07:30:53Z</time>
      </trkpt>
      <trkpt lat="43.52138" lon="6.27453">
        <ele>288</ele>
        <time>2022-06-17T07:31:07Z</time>
      </trkpt>
      <trkpt lat="43.52132" lon="6.27444">
        <ele>288</ele>
        <time>2022-06-17T07:31:23Z</time>
      </trkpt>
      <trkpt lat="43.52134" lon="6.27431">
        <ele>288</ele>
        <time>2022-06-17T07:31:40Z</time>
      </trkpt>
      <trkpt lat="43.52137" lon="6.27419">
        <ele>290</ele>
        <time>2022-06-17T07:31:54Z</time>
      </trkpt>
      <trkpt lat="43.52137" lon="6.27394">
        <ele>292</ele>
        <time>2022-06-17T07:32:20Z</time>
      </trkpt>
      <trkpt lat="43.52137" lon="6.27382">
        <ele>295</ele>
        <time>2022-06-17T07:32:29Z</time>
      </trkpt>
      <trkpt lat="43.52133" lon="6.27369">
        <ele>297</ele>
        <time>2022-06-17T07:32:51Z</time>
      </trkpt>
      <trkpt lat="43.52131" lon="6.27332">
        <ele>298</ele>
        <time>2022-06-17T07:33:30Z</time>
      </trkpt>
      <trkpt lat="43.52132" lon="6.27319">
        <ele>299</ele>
        <time>2022-06-17T07:33:46Z</time>
      </trkpt>
      <trkpt lat="43.52133" lon="6.27307">
        <ele>300</ele>
        <time>2022-06-17T07:34:00Z</time>
      </trkpt>
      <trkpt lat="43.52134" lon="6.27281">
        <ele>300</ele>
        <time>2022-06-17T07:34:25Z</time>
      </trkpt>
      <trkpt lat="43.52132" lon="6.27269">
        <ele>302</ele>
        <time>2022-06-17T07:34:37Z</time>
      </trkpt>
      <trkpt lat="43.52127" lon="6.27259">
        <ele>300</ele>
        <time>2022-06-17T07:34:48Z</time>
      </trkpt>
      <trkpt lat="43.52122" lon="6.27248">
        <ele>301</ele>
        <time>2022-06-17T07:35:00Z</time>
      </trkpt>
      <trkpt lat="43.52114" lon="6.27243">
        <ele>303</ele>
        <time>2022-06-17T07:37:49Z</time>
      </trkpt>
      <trkpt lat="43.52109" lon="6.27233">
        <ele>301</ele>
        <time>2022-06-17T07:38:04Z</time>
      </trkpt>
      <trkpt lat="43.52102" lon="6.27224">
        <ele>301</ele>
        <time>2022-06-17T07:38:15Z</time>
      </trkpt>
      <trkpt lat="43.52086" lon="6.27194">
        <ele>301</ele>
        <time>2022-06-17T07:38:47Z</time>
      </trkpt>
      <trkpt lat="43.52072" lon="6.2716">
        <ele>306</ele>
        <time>2022-06-17T07:39:16Z</time>
      </trkpt>
      <trkpt lat="43.52064" lon="6.27154">
        <ele>307</ele>
        <time>2022-06-17T07:39:28Z</time>
      </trkpt>
      <trkpt lat="43.52055" lon="6.27158">
        <ele>310</ele>
        <time>2022-06-17T07:39:41Z</time>
      </trkpt>
      <trkpt lat="43.5204" lon="6.27168">
        <ele>311</ele>
        <time>2022-06-17T07:39:57Z</time>
      </trkpt>
      <trkpt lat="43.52036" lon="6.27169">
        <ele>311</ele>
        <time>2022-06-17T07:40:01Z</time>
      </trkpt>
      <trkpt lat="43.52032" lon="6.27171">
        <ele>310</ele>
        <time>2022-06-17T07:40:05Z</time>
      </trkpt>
      <trkpt lat="43.52029" lon="6.27174">
        <ele>308</ele>
        <time>2022-06-17T07:40:09Z</time>
      </trkpt>
      <trkpt lat="43.52007" lon="6.27197">
        <ele>306</ele>
        <time>2022-06-17T07:40:37Z</time>
      </trkpt>
      <trkpt lat="43.52001" lon="6.27205">
        <ele>305</ele>
        <time>2022-06-17T07:40:47Z</time>
      </trkpt>
      <trkpt lat="43.51993" lon="6.27222">
        <ele>308</ele>
        <time>2022-06-17T07:41:03Z</time>
      </trkpt>
      <trkpt lat="43.51988" lon="6.27231">
        <ele>310</ele>
        <time>2022-06-17T07:41:10Z</time>
      </trkpt>
      <trkpt lat="43.51983" lon="6.27238">
        <ele>308</ele>
        <time>2022-06-17T07:41:17Z</time>
      </trkpt>
      <trkpt lat="43.5198" lon="6.2724">
        <ele>307</ele>
        <time>2022-06-17T07:41:20Z</time>
      </trkpt>
      <trkpt lat="43.51977" lon="6.27244">
        <ele>308</ele>
        <time>2022-06-17T07:41:24Z</time>
      </trkpt>
      <trkpt lat="43.5197" lon="6.27252">
        <ele>307</ele>
        <time>2022-06-17T07:41:33Z</time>
      </trkpt>
      <trkpt lat="43.51962" lon="6.27261">
        <ele>305</ele>
        <time>2022-06-17T07:41:42Z</time>
      </trkpt>
      <trkpt lat="43.51928" lon="6.2728">
        <ele>305</ele>
        <time>2022-06-17T07:42:14Z</time>
      </trkpt>
      <trkpt lat="43.51919" lon="6.27286">
        <ele>308</ele>
        <time>2022-06-17T07:42:23Z</time>
      </trkpt>
      <trkpt lat="43.51911" lon="6.27292">
        <ele>313</ele>
        <time>2022-06-17T07:42:32Z</time>
      </trkpt>
      <trkpt lat="43.51902" lon="6.27297">
        <ele>313</ele>
        <time>2022-06-17T07:42:42Z</time>
      </trkpt>
      <trkpt lat="43.51884" lon="6.27309">
        <ele>316</ele>
        <time>2022-06-17T07:43:00Z</time>
      </trkpt>
      <trkpt lat="43.51868" lon="6.27323">
        <ele>316</ele>
        <time>2022-06-17T07:43:18Z</time>
      </trkpt>
      <trkpt lat="43.51833" lon="6.27346">
        <ele>312</ele>
        <time>2022-06-17T07:43:54Z</time>
      </trkpt>
      <trkpt lat="43.51825" lon="6.27352">
        <ele>313</ele>
        <time>2022-06-17T07:44:03Z</time>
      </trkpt>
      <trkpt lat="43.51818" lon="6.2736">
        <ele>313</ele>
        <time>2022-06-17T07:44:11Z</time>
      </trkpt>
      <trkpt lat="43.51811" lon="6.2737">
        <ele>310</ele>
        <time>2022-06-17T07:44:19Z</time>
      </trkpt>
      <trkpt lat="43.51806" lon="6.27381">
        <ele>310</ele>
        <time>2022-06-17T07:44:27Z</time>
      </trkpt>
      <trkpt lat="43.51801" lon="6.27392">
        <ele>310</ele>
        <time>2022-06-17T07:44:35Z</time>
      </trkpt>
      <trkpt lat="43.51795" lon="6.27401">
        <ele>308</ele>
        <time>2022-06-17T07:44:43Z</time>
      </trkpt>
      <trkpt lat="43.51784" lon="6.27437">
        <ele>304</ele>
        <time>2022-06-17T07:45:08Z</time>
      </trkpt>
      <trkpt lat="43.51778" lon="6.27476">
        <ele>305</ele>
        <time>2022-06-17T07:45:35Z</time>
      </trkpt>
      <trkpt lat="43.51774" lon="6.27487">
        <ele>303</ele>
        <time>2022-06-17T07:45:43Z</time>
      </trkpt>
      <trkpt lat="43.51759" lon="6.27503">
        <ele>300</ele>
        <time>2022-06-17T07:46:02Z</time>
      </trkpt>
      <trkpt lat="43.51742" lon="6.27516">
        <ele>296</ele>
        <time>2022-06-17T07:46:20Z</time>
      </trkpt>
      <trkpt lat="43.51734" lon="6.27521">
        <ele>296</ele>
        <time>2022-06-17T07:46:29Z</time>
      </trkpt>
      <trkpt lat="43.51698" lon="6.27533">
        <ele>296</ele>
        <time>2022-06-17T07:47:02Z</time>
      </trkpt>
      <trkpt lat="43.51672" lon="6.27545">
        <ele>294</ele>
        <time>2022-06-17T07:47:27Z</time>
      </trkpt>
      <trkpt lat="43.51653" lon="6.2755">
        <ele>290</ele>
        <time>2022-06-17T07:47:43Z</time>
      </trkpt>
      <trkpt lat="43.51644" lon="6.27553">
        <ele>286</ele>
        <time>2022-06-17T07:47:52Z</time>
      </trkpt>
      <trkpt lat="43.51607" lon="6.2756">
        <ele>287</ele>
        <time>2022-06-17T07:48:26Z</time>
      </trkpt>
      <trkpt lat="43.51598" lon="6.2756">
        <ele>287</ele>
        <time>2022-06-17T07:48:34Z</time>
      </trkpt>
      <trkpt lat="43.51589" lon="6.27559">
        <ele>286</ele>
        <time>2022-06-17T07:48:42Z</time>
      </trkpt>
      <trkpt lat="43.51565" lon="6.27536">
        <ele>287</ele>
        <time>2022-06-17T07:49:06Z</time>
      </trkpt>
      <trkpt lat="43.51557" lon="6.2753">
        <ele>287</ele>
        <time>2022-06-17T07:49:15Z</time>
      </trkpt>
      <trkpt lat="43.51548" lon="6.27529">
        <ele>286</ele>
        <time>2022-06-17T07:49:23Z</time>
      </trkpt>
      <trkpt lat="43.51539" lon="6.27532">
        <ele>283</ele>
        <time>2022-06-17T07:49:31Z</time>
      </trkpt>
      <trkpt lat="43.5153" lon="6.27533">
        <ele>284</ele>
        <time>2022-06-17T07:49:39Z</time>
      </trkpt>
      <trkpt lat="43.51521" lon="6.27535">
        <ele>287</ele>
        <time>2022-06-17T07:49:47Z</time>
      </trkpt>
      <trkpt lat="43.51494" lon="6.27535">
        <ele>287</ele>
        <time>2022-06-17T07:50:10Z</time>
      </trkpt>
      <trkpt lat="43.51485" lon="6.27531">
        <ele>288</ele>
        <time>2022-06-17T07:50:19Z</time>
      </trkpt>
      <trkpt lat="43.51475" lon="6.27527">
        <ele>288</ele>
        <time>2022-06-17T07:50:28Z</time>
      </trkpt>
      <trkpt lat="43.51457" lon="6.27519">
        <ele>294</ele>
        <time>2022-06-17T07:50:46Z</time>
      </trkpt>
      <trkpt lat="43.51431" lon="6.27505">
        <ele>291</ele>
        <time>2022-06-17T07:51:13Z</time>
      </trkpt>
      <trkpt lat="43.51427" lon="6.27503">
        <ele>290</ele>
        <time>2022-06-17T07:51:17Z</time>
      </trkpt>
      <trkpt lat="43.51423" lon="6.27501">
        <ele>290</ele>
        <time>2022-06-17T07:51:21Z</time>
      </trkpt>
      <trkpt lat="43.51407" lon="6.27501">
        <ele>287</ele>
        <time>2022-06-17T07:51:38Z</time>
      </trkpt>
      <trkpt lat="43.51401" lon="6.27495">
        <ele>285</ele>
        <time>2022-06-17T07:51:46Z</time>
      </trkpt>
      <trkpt lat="43.51399" lon="6.27491">
        <ele>285</ele>
        <time>2022-06-17T07:51:50Z</time>
      </trkpt>
      <trkpt lat="43.51393" lon="6.27477">
        <ele>286</ele>
        <time>2022-06-17T07:52:02Z</time>
      </trkpt>
      <trkpt lat="43.51392" lon="6.27471">
        <ele>286</ele>
        <time>2022-06-17T07:52:06Z</time>
      </trkpt>
      <trkpt lat="43.5139" lon="6.27467">
        <ele>286</ele>
        <time>2022-06-17T07:52:21Z</time>
      </trkpt>
      <trkpt lat="43.51388" lon="6.27463">
        <ele>286</ele>
        <time>2022-06-17T07:52:25Z</time>
      </trkpt>
      <trkpt lat="43.51388" lon="6.27457">
        <ele>288</ele>
        <time>2022-06-17T07:52:32Z</time>
      </trkpt>
      <trkpt lat="43.51389" lon="6.27453">
        <ele>288</ele>
        <time>2022-06-17T07:52:50Z</time>
      </trkpt>
      <trkpt lat="43.51385" lon="6.27443">
        <ele>291</ele>
        <time>2022-06-17T07:53:06Z</time>
      </trkpt>
      <trkpt lat="43.51383" lon="6.27439">
        <ele>293</ele>
        <time>2022-06-17T07:53:10Z</time>
      </trkpt>
      <trkpt lat="43.51382" lon="6.27433">
        <ele>293</ele>
        <time>2022-06-17T07:53:14Z</time>
      </trkpt>
      <trkpt lat="43.51371" lon="6.27383">
        <ele>290</ele>
        <time>2022-06-17T07:53:49Z</time>
      </trkpt>
      <trkpt lat="43.5136" lon="6.27333">
        <ele>293</ele>
        <time>2022-06-17T07:54:25Z</time>
      </trkpt>
      <trkpt lat="43.51358" lon="6.27321">
        <ele>294</ele>
        <time>2022-06-17T07:54:33Z</time>
      </trkpt>
      <trkpt lat="43.51352" lon="6.27296">
        <ele>297</ele>
        <time>2022-06-17T07:54:51Z</time>
      </trkpt>
      <trkpt lat="43.51348" lon="6.27285">
        <ele>296</ele>
        <time>2022-06-17T07:55:00Z</time>
      </trkpt>
      <trkpt lat="43.51341" lon="6.27234">
        <ele>295</ele>
        <time>2022-06-17T07:55:36Z</time>
      </trkpt>
      <trkpt lat="43.5134" lon="6.27207">
        <ele>293</ele>
        <time>2022-06-17T07:55:55Z</time>
      </trkpt>
      <trkpt lat="43.5134" lon="6.27195">
        <ele>291</ele>
        <time>2022-06-17T07:56:04Z</time>
      </trkpt>
      <trkpt lat="43.51334" lon="6.27186">
        <ele>287</ele>
        <time>2022-06-17T07:56:14Z</time>
      </trkpt>
      <trkpt lat="43.51325" lon="6.27185">
        <ele>286</ele>
        <time>2022-06-17T07:56:26Z</time>
      </trkpt>
      <trkpt lat="43.51317" lon="6.27189">
        <ele>283</ele>
        <time>2022-06-17T07:56:45Z</time>
      </trkpt>
      <trkpt lat="43.51307" lon="6.27191">
        <ele>282</ele>
        <time>2022-06-17T07:56:55Z</time>
      </trkpt>
      <trkpt lat="43.51298" lon="6.27188">
        <ele>282</ele>
        <time>2022-06-17T07:57:05Z</time>
      </trkpt>
      <trkpt lat="43.51289" lon="6.27186">
        <ele>282</ele>
        <time>2022-06-17T07:57:15Z</time>
      </trkpt>
      <trkpt lat="43.5128" lon="6.27183">
        <ele>279</ele>
        <time>2022-06-17T07:57:23Z</time>
      </trkpt>
      <trkpt lat="43.51271" lon="6.2718">
        <ele>278</ele>
        <time>2022-06-17T07:57:32Z</time>
      </trkpt>
      <trkpt lat="43.51252" lon="6.27175">
        <ele>276</ele>
        <time>2022-06-17T07:57:52Z</time>
      </trkpt>
      <trkpt lat="43.51243" lon="6.2717">
        <ele>278</ele>
        <time>2022-06-17T07:58:02Z</time>
      </trkpt>
      <trkpt lat="43.51234" lon="6.27168">
        <ele>280</ele>
        <time>2022-06-17T07:58:11Z</time>
      </trkpt>
      <trkpt lat="43.51225" lon="6.27164">
        <ele>283</ele>
        <time>2022-06-17T07:58:20Z</time>
      </trkpt>
      <trkpt lat="43.51197" lon="6.27159">
        <ele>284</ele>
        <time>2022-06-17T07:58:45Z</time>
      </trkpt>
      <trkpt lat="43.51178" lon="6.27154">
        <ele>286</ele>
        <time>2022-06-17T07:59:01Z</time>
      </trkpt>
      <trkpt lat="43.51169" lon="6.27154">
        <ele>286</ele>
        <time>2022-06-17T07:59:09Z</time>
      </trkpt>
      <trkpt lat="43.5116" lon="6.27148">
        <ele>285</ele>
        <time>2022-06-17T07:59:17Z</time>
      </trkpt>
      <trkpt lat="43.51154" lon="6.27138">
        <ele>285</ele>
        <time>2022-06-17T07:59:24Z</time>
      </trkpt>
      <trkpt lat="43.51149" lon="6.27126">
        <ele>285</ele>
        <time>2022-06-17T07:59:32Z</time>
      </trkpt>
      <trkpt lat="43.51148" lon="6.27099">
        <ele>280</ele>
        <time>2022-06-17T07:59:50Z</time>
      </trkpt>
      <trkpt lat="43.51145" lon="6.27086">
        <ele>277</ele>
        <time>2022-06-17T07:59:58Z</time>
      </trkpt>
      <trkpt lat="43.5114" lon="6.27075">
        <ele>277</ele>
        <time>2022-06-17T08:00:06Z</time>
      </trkpt>
      <trkpt lat="43.51132" lon="6.27068">
        <ele>276</ele>
        <time>2022-06-17T08:00:15Z</time>
      </trkpt>
      <trkpt lat="43.51123" lon="6.27069">
        <ele>277</ele>
        <time>2022-06-17T08:00:23Z</time>
      </trkpt>
      <trkpt lat="43.51114" lon="6.27073">
        <ele>280</ele>
        <time>2022-06-17T08:00:32Z</time>
      </trkpt>
      <trkpt lat="43.51105" lon="6.27074">
        <ele>281</ele>
        <time>2022-06-17T08:00:40Z</time>
      </trkpt>
      <trkpt lat="43.51096" lon="6.27074">
        <ele>283</ele>
        <time>2022-06-17T08:00:47Z</time>
      </trkpt>
      <trkpt lat="43.51087" lon="6.27069">
        <ele>284</ele>
        <time>2022-06-17T08:00:55Z</time>
      </trkpt>
      <trkpt lat="43.51078" lon="6.27063">
        <ele>282</ele>
        <time>2022-06-17T08:01:03Z</time>
      </trkpt>
      <trkpt lat="43.5106" lon="6.27058">
        <ele>280</ele>
        <time>2022-06-17T08:01:19Z</time>
      </trkpt>
      <trkpt lat="43.51026" lon="6.27035">
        <ele>275</ele>
        <time>2022-06-17T08:01:50Z</time>
      </trkpt>
      <trkpt lat="43.51017" lon="6.27032">
        <ele>278</ele>
        <time>2022-06-17T08:01:57Z</time>
      </trkpt>
      <trkpt lat="43.51008" lon="6.27027">
        <ele>281</ele>
        <time>2022-06-17T08:02:04Z</time>
      </trkpt>
      <trkpt lat="43.51" lon="6.27032">
        <ele>283</ele>
        <time>2022-06-17T08:02:14Z</time>
      </trkpt>
      <trkpt lat="43.50994" lon="6.27042">
        <ele>279</ele>
        <time>2022-06-17T08:02:23Z</time>
      </trkpt>
      <trkpt lat="43.50986" lon="6.27047">
        <ele>278</ele>
        <time>2022-06-17T08:02:33Z</time>
      </trkpt>
      <trkpt lat="43.50979" lon="6.27055">
        <ele>279</ele>
        <time>2022-06-17T08:02:45Z</time>
      </trkpt>
      <trkpt lat="43.50978" lon="6.27068">
        <ele>278</ele>
        <time>2022-06-17T08:02:54Z</time>
      </trkpt>
      <trkpt lat="43.50982" lon="6.27079">
        <ele>278</ele>
        <time>2022-06-17T08:03:05Z</time>
      </trkpt>
      <trkpt lat="43.50978" lon="6.27091">
        <ele>275</ele>
        <time>2022-06-17T08:04:08Z</time>
      </trkpt>
      <trkpt lat="43.50969" lon="6.27095">
        <ele>268</ele>
        <time>2022-06-17T08:04:18Z</time>
      </trkpt>
      <trkpt lat="43.50963" lon="6.27105">
        <ele>264</ele>
        <time>2022-06-17T08:04:29Z</time>
      </trkpt>
      <trkpt lat="43.50957" lon="6.27129">
        <ele>264</ele>
        <time>2022-06-17T08:05:01Z</time>
      </trkpt>
      <trkpt lat="43.50949" lon="6.27152">
        <ele>262</ele>
        <time>2022-06-17T08:05:21Z</time>
      </trkpt>
      <trkpt lat="43.50944" lon="6.27163">
        <ele>258</ele>
        <time>2022-06-17T08:05:31Z</time>
      </trkpt>
      <trkpt lat="43.50941" lon="6.27175">
        <ele>258</ele>
        <time>2022-06-17T08:05:42Z</time>
      </trkpt>
      <trkpt lat="43.5093" lon="6.2721">
        <ele>259</ele>
        <time>2022-06-17T08:06:14Z</time>
      </trkpt>
      <trkpt lat="43.50928" lon="6.27223">
        <ele>260</ele>
        <time>2022-06-17T08:06:26Z</time>
      </trkpt>
      <trkpt lat="43.50923" lon="6.27235">
        <ele>259</ele>
        <time>2022-06-17T08:06:38Z</time>
      </trkpt>
      <trkpt lat="43.50921" lon="6.27248">
        <ele>260</ele>
        <time>2022-06-17T08:07:22Z</time>
      </trkpt>
      <trkpt lat="43.50918" lon="6.27262">
        <ele>257</ele>
        <time>2022-06-17T08:07:34Z</time>
      </trkpt>
      <trkpt lat="43.50913" lon="6.27272">
        <ele>255</ele>
        <time>2022-06-17T08:07:44Z</time>
      </trkpt>
      <trkpt lat="43.509" lon="6.2729">
        <ele>250</ele>
        <time>2022-06-17T08:08:10Z</time>
      </trkpt>
      <trkpt lat="43.50893" lon="6.27297">
        <ele>246</ele>
        <time>2022-06-17T08:08:25Z</time>
      </trkpt>
      <trkpt lat="43.50884" lon="6.27297">
        <ele>246</ele>
        <time>2022-06-17T08:08:40Z</time>
      </trkpt>
      <trkpt lat="43.50866" lon="6.27298">
        <ele>246</ele>
        <time>2022-06-17T08:09:15Z</time>
      </trkpt>
      <trkpt lat="43.50857" lon="6.27294">
        <ele>244</ele>
        <time>2022-06-17T08:09:32Z</time>
      </trkpt>
      <trkpt lat="43.50847" lon="6.27292">
        <ele>243</ele>
        <time>2022-06-17T08:09:47Z</time>
      </trkpt>
      <trkpt lat="43.50829" lon="6.27292">
        <ele>238</ele>
        <time>2022-06-17T08:10:23Z</time>
      </trkpt>
      <trkpt lat="43.50821" lon="6.273">
        <ele>238</ele>
        <time>2022-06-17T08:10:40Z</time>
      </trkpt>
      <trkpt lat="43.50815" lon="6.27309">
        <ele>236</ele>
        <time>2022-06-17T08:10:59Z</time>
      </trkpt>
      <trkpt lat="43.50809" lon="6.27319">
        <ele>234</ele>
        <time>2022-06-17T08:11:17Z</time>
      </trkpt>
      <trkpt lat="43.50803" lon="6.27343">
        <ele>234</ele>
        <time>2022-06-17T08:11:51Z</time>
      </trkpt>
      <trkpt lat="43.508" lon="6.27355">
        <ele>235</ele>
        <time>2022-06-17T08:12:08Z</time>
      </trkpt>
      <trkpt lat="43.50795" lon="6.27365">
        <ele>232</ele>
        <time>2022-06-17T08:12:21Z</time>
      </trkpt>
      <trkpt lat="43.50788" lon="6.27374">
        <ele>229</ele>
        <time>2022-06-17T08:12:39Z</time>
      </trkpt>
      <trkpt lat="43.5078" lon="6.2738">
        <ele>224</ele>
        <time>2022-06-17T08:13:12Z</time>
      </trkpt>
      <trkpt lat="43.50772" lon="6.27386">
        <ele>227</ele>
        <time>2022-06-17T08:15:43Z</time>
      </trkpt>
      <trkpt lat="43.50764" lon="6.27393">
        <ele>234</ele>
        <time>2022-06-17T08:16:05Z</time>
      </trkpt>
      <trkpt lat="43.50756" lon="6.27397">
        <ele>233</ele>
        <time>2022-06-17T08:16:19Z</time>
      </trkpt>
      <trkpt lat="43.50747" lon="6.27404">
        <ele>231</ele>
        <time>2022-06-17T08:16:30Z</time>
      </trkpt>
      <trkpt lat="43.5073" lon="6.27433">
        <ele>229</ele>
        <time>2022-06-17T08:17:11Z</time>
      </trkpt>
      <trkpt lat="43.50723" lon="6.27442">
        <ele>230</ele>
        <time>2022-06-17T08:17:24Z</time>
      </trkpt>
      <trkpt lat="43.50719" lon="6.27452">
        <ele>229</ele>
        <time>2022-06-17T08:17:35Z</time>
      </trkpt>
      <trkpt lat="43.50714" lon="6.27463">
        <ele>223</ele>
        <time>2022-06-17T08:17:46Z</time>
      </trkpt>
      <trkpt lat="43.50706" lon="6.27487">
        <ele>222</ele>
        <time>2022-06-17T08:18:08Z</time>
      </trkpt>
      <trkpt lat="43.50702" lon="6.27498">
        <ele>222</ele>
        <time>2022-06-17T08:18:18Z</time>
      </trkpt>
      <trkpt lat="43.50698" lon="6.2751">
        <ele>220</ele>
        <time>2022-06-17T08:18:29Z</time>
      </trkpt>
      <trkpt lat="43.50693" lon="6.27522">
        <ele>219</ele>
        <time>2022-06-17T08:18:40Z</time>
      </trkpt>
      <trkpt lat="43.50689" lon="6.27533">
        <ele>220</ele>
        <time>2022-06-17T08:18:50Z</time>
      </trkpt>
      <trkpt lat="43.50684" lon="6.27545">
        <ele>219</ele>
        <time>2022-06-17T08:19:00Z</time>
      </trkpt>
      <trkpt lat="43.5068" lon="6.27556">
        <ele>214</ele>
        <time>2022-06-17T08:19:10Z</time>
      </trkpt>
      <trkpt lat="43.50669" lon="6.27591">
        <ele>213</ele>
        <time>2022-06-17T08:19:39Z</time>
      </trkpt>
      <trkpt lat="43.50666" lon="6.27604">
        <ele>212</ele>
        <time>2022-06-17T08:19:50Z</time>
      </trkpt>
      <trkpt lat="43.50648" lon="6.27634">
        <ele>213</ele>
        <time>2022-06-17T08:20:19Z</time>
      </trkpt>
      <trkpt lat="43.50642" lon="6.27644">
        <ele>212</ele>
        <time>2022-06-17T08:20:30Z</time>
      </trkpt>
      <trkpt lat="43.50629" lon="6.27664">
        <ele>208</ele>
        <time>2022-06-17T08:20:49Z</time>
      </trkpt>
      <trkpt lat="43.50623" lon="6.27673">
        <ele>207</ele>
        <time>2022-06-17T08:21:00Z</time>
      </trkpt>
      <trkpt lat="43.50617" lon="6.27682">
        <ele>204</ele>
        <time>2022-06-17T08:21:10Z</time>
      </trkpt>
      <trkpt lat="43.50611" lon="6.27692">
        <ele>200</ele>
        <time>2022-06-17T08:21:21Z</time>
      </trkpt>
      <trkpt lat="43.50605" lon="6.27702">
        <ele>199</ele>
        <time>2022-06-17T08:21:34Z</time>
      </trkpt>
      <trkpt lat="43.50592" lon="6.27719">
        <ele>197</ele>
        <time>2022-06-17T08:21:53Z</time>
      </trkpt>
      <trkpt lat="43.50585" lon="6.27729">
        <ele>197</ele>
        <time>2022-06-17T08:22:07Z</time>
      </trkpt>
      <trkpt lat="43.50576" lon="6.27726">
        <ele>196</ele>
        <time>2022-06-17T08:22:35Z</time>
      </trkpt>
      <trkpt lat="43.50559" lon="6.27737">
        <ele>193</ele>
        <time>2022-06-17T08:22:56Z</time>
      </trkpt>
      <trkpt lat="43.5055" lon="6.27739">
        <ele>193</ele>
        <time>2022-06-17T08:23:06Z</time>
      </trkpt>
      <trkpt lat="43.50541" lon="6.2774">
        <ele>191</ele>
        <time>2022-06-17T08:23:15Z</time>
      </trkpt>
      <trkpt lat="43.50534" lon="6.27748">
        <ele>191</ele>
        <time>2022-06-17T08:23:25Z</time>
      </trkpt>
      <trkpt lat="43.50526" lon="6.27756">
        <ele>192</ele>
        <time>2022-06-17T08:23:35Z</time>
      </trkpt>
      <trkpt lat="43.50526" lon="6.27768">
        <ele>194</ele>
        <time>2022-06-17T08:24:06Z</time>
      </trkpt>
      <trkpt lat="43.50518" lon="6.27777">
        <ele>191</ele>
        <time>2022-06-17T08:24:27Z</time>
      </trkpt>
      <trkpt lat="43.50514" lon="6.27787">
        <ele>188</ele>
        <time>2022-06-17T08:24:39Z</time>
      </trkpt>
      <trkpt lat="43.5051" lon="6.27796">
        <ele>180</ele>
        <time>2022-06-17T08:24:47Z</time>
      </trkpt>
      <trkpt lat="43.50505" lon="6.27805">
        <ele>176</ele>
        <time>2022-06-17T08:24:57Z</time>
      </trkpt>
      <trkpt lat="43.50504" lon="6.27809">
        <ele>174</ele>
        <time>2022-06-17T08:25:01Z</time>
      </trkpt>
      <trkpt lat="43.50504" lon="6.27814">
        <ele>175</ele>
        <time>2022-06-17T08:25:07Z</time>
      </trkpt>
      <trkpt lat="43.50513" lon="6.27825">
        <ele>178</ele>
        <time>2022-06-17T08:25:26Z</time>
      </trkpt>
      <trkpt lat="43.5052" lon="6.27829">
        <ele>178</ele>
        <time>2022-06-17T08:25:38Z</time>
      </trkpt>
      <trkpt lat="43.50524" lon="6.2783">
        <ele>178</ele>
        <time>2022-06-17T08:25:43Z</time>
      </trkpt>
      <trkpt lat="43.50527" lon="6.27832">
        <ele>176</ele>
        <time>2022-06-17T08:25:48Z</time>
      </trkpt>
      <trkpt lat="43.50544" lon="6.27835">
        <ele>175</ele>
        <time>2022-06-17T08:26:07Z</time>
      </trkpt>
      <trkpt lat="43.50547" lon="6.27836">
        <ele>174</ele>
        <time>2022-06-17T08:26:11Z</time>
      </trkpt>
      <trkpt lat="43.50559" lon="6.27842">
        <ele>173</ele>
        <time>2022-06-17T08:26:25Z</time>
      </trkpt>
      <trkpt lat="43.50562" lon="6.27843">
        <ele>172</ele>
        <time>2022-06-17T08:26:29Z</time>
      </trkpt>
      <trkpt lat="43.50566" lon="6.27843">
        <ele>173</ele>
        <time>2022-06-17T08:26:34Z</time>
      </trkpt>
      <trkpt lat="43.5057" lon="6.27843">
        <ele>177</ele>
        <time>2022-06-17T08:26:40Z</time>
      </trkpt>
      <trkpt lat="43.50574" lon="6.27842">
        <ele>178</ele>
        <time>2022-06-17T08:26:46Z</time>
      </trkpt>
      <trkpt lat="43.50578" lon="6.2784">
        <ele>178</ele>
        <time>2022-06-17T08:26:51Z</time>
      </trkpt>
      <trkpt lat="43.50581" lon="6.27837">
        <ele>179</ele>
        <time>2022-06-17T08:26:56Z</time>
      </trkpt>
      <trkpt lat="43.5059" lon="6.27839">
        <ele>180</ele>
        <time>2022-06-17T08:27:06Z</time>
      </trkpt>
      <trkpt lat="43.50599" lon="6.27841">
        <ele>179</ele>
        <time>2022-06-17T08:27:17Z</time>
      </trkpt>
      <trkpt lat="43.50606" lon="6.2785">
        <ele>178</ele>
        <time>2022-06-17T08:27:26Z</time>
      </trkpt>
      <trkpt lat="43.50613" lon="6.27858">
        <ele>176</ele>
        <time>2022-06-17T08:27:38Z</time>
      </trkpt>
      <trkpt lat="43.50625" lon="6.27868">
        <ele>171</ele>
        <time>2022-06-17T08:27:52Z</time>
      </trkpt>
      <trkpt lat="43.50629" lon="6.27869">
        <ele>170</ele>
        <time>2022-06-17T08:27:57Z</time>
      </trkpt>
      <trkpt lat="43.50632" lon="6.27869">
        <ele>168</ele>
        <time>2022-06-17T08:28:03Z</time>
      </trkpt>
      <trkpt lat="43.50649" lon="6.27887">
        <ele>163</ele>
        <time>2022-06-17T08:28:25Z</time>
      </trkpt>
      <trkpt lat="43.50652" lon="6.27891">
        <ele>165</ele>
        <time>2022-06-17T08:28:29Z</time>
      </trkpt>
      <trkpt lat="43.50656" lon="6.27894">
        <ele>165</ele>
        <time>2022-06-17T08:28:33Z</time>
      </trkpt>
      <trkpt lat="43.5066" lon="6.27898">
        <ele>165</ele>
        <time>2022-06-17T08:28:37Z</time>
      </trkpt>
      <trkpt lat="43.50667" lon="6.27905">
        <ele>164</ele>
        <time>2022-06-17T08:28:45Z</time>
      </trkpt>
      <trkpt lat="43.5067" lon="6.27907">
        <ele>164</ele>
        <time>2022-06-17T08:28:48Z</time>
      </trkpt>
      <trkpt lat="43.50673" lon="6.27908">
        <ele>163</ele>
        <time>2022-06-17T08:28:52Z</time>
      </trkpt>
      <trkpt lat="43.50677" lon="6.27907">
        <ele>163</ele>
        <time>2022-06-17T08:28:57Z</time>
      </trkpt>
      <trkpt lat="43.50679" lon="6.27902">
        <ele>165</ele>
        <time>2022-06-17T08:29:05Z</time>
      </trkpt>
      <trkpt lat="43.50678" lon="6.27897">
        <ele>166</ele>
        <time>2022-06-17T08:29:12Z</time>
      </trkpt>
      <trkpt lat="43.50686" lon="6.27896">
        <ele>170</ele>
        <time>2022-06-17T08:29:22Z</time>
      </trkpt>
      <trkpt lat="43.5069" lon="6.27896">
        <ele>172</ele>
        <time>2022-06-17T08:29:27Z</time>
      </trkpt>
      <trkpt lat="43.50694" lon="6.27895">
        <ele>174</ele>
        <time>2022-06-17T08:29:32Z</time>
      </trkpt>
      <trkpt lat="43.50702" lon="6.27892">
        <ele>175</ele>
        <time>2022-06-17T08:29:41Z</time>
      </trkpt>
      <trkpt lat="43.50711" lon="6.2789">
        <ele>178</ele>
        <time>2022-06-17T08:29:50Z</time>
      </trkpt>
      <trkpt lat="43.5072" lon="6.27886">
        <ele>184</ele>
        <time>2022-06-17T08:30:00Z</time>
      </trkpt>
      <trkpt lat="43.5073" lon="6.27885">
        <ele>187</ele>
        <time>2022-06-17T08:30:11Z</time>
      </trkpt>
      <trkpt lat="43.5074" lon="6.27885">
        <ele>189</ele>
        <time>2022-06-17T08:30:22Z</time>
      </trkpt>
      <trkpt lat="43.50749" lon="6.27884">
        <ele>189</ele>
        <time>2022-06-17T08:30:34Z</time>
      </trkpt>
      <trkpt lat="43.50758" lon="6.27885">
        <ele>189</ele>
        <time>2022-06-17T08:30:46Z</time>
      </trkpt>
      <trkpt lat="43.50767" lon="6.27886">
        <ele>188</ele>
        <time>2022-06-17T08:30:56Z</time>
      </trkpt>
      <trkpt lat="43.50777" lon="6.27887">
        <ele>191</ele>
        <time>2022-06-17T08:31:06Z</time>
      </trkpt>
      <trkpt lat="43.50786" lon="6.27889">
        <ele>194</ele>
        <time>2022-06-17T08:31:18Z</time>
      </trkpt>
      <trkpt lat="43.50795" lon="6.27895">
        <ele>192</ele>
        <time>2022-06-17T08:31:27Z</time>
      </trkpt>
      <trkpt lat="43.50804" lon="6.27894">
        <ele>194</ele>
        <time>2022-06-17T08:31:43Z</time>
      </trkpt>
      <trkpt lat="43.50823" lon="6.27896">
        <ele>194</ele>
        <time>2022-06-17T08:32:02Z</time>
      </trkpt>
      <trkpt lat="43.50832" lon="6.279">
        <ele>193</ele>
        <time>2022-06-17T08:32:59Z</time>
      </trkpt>
      <trkpt lat="43.50835" lon="6.27898">
        <ele>193</ele>
        <time>2022-06-17T08:33:42Z</time>
      </trkpt>
      <trkpt lat="43.50843" lon="6.27897">
        <ele>193</ele>
        <time>2022-06-17T08:33:56Z</time>
      </trkpt>
      <trkpt lat="43.50846" lon="6.27899">
        <ele>193</ele>
        <time>2022-06-17T08:34:04Z</time>
      </trkpt>
      <trkpt lat="43.50854" lon="6.279">
        <ele>192</ele>
        <time>2022-06-17T08:34:15Z</time>
      </trkpt>
      <trkpt lat="43.50857" lon="6.27901">
        <ele>192</ele>
        <time>2022-06-17T08:34:19Z</time>
      </trkpt>
      <trkpt lat="43.50861" lon="6.27903">
        <ele>192</ele>
        <time>2022-06-17T08:34:27Z</time>
      </trkpt>
      <trkpt lat="43.50864" lon="6.27906">
        <ele>196</ele>
        <time>2022-06-17T08:34:33Z</time>
      </trkpt>
      <trkpt lat="43.50867" lon="6.27909">
        <ele>198</ele>
        <time>2022-06-17T08:34:41Z</time>
      </trkpt>
      <trkpt lat="43.5087" lon="6.2791">
        <ele>199</ele>
        <time>2022-06-17T08:34:53Z</time>
      </trkpt>
      <trkpt lat="43.50875" lon="6.27917">
        <ele>196</ele>
        <time>2022-06-17T08:35:03Z</time>
      </trkpt>
      <trkpt lat="43.50878" lon="6.27921">
        <ele>196</ele>
        <time>2022-06-17T08:35:08Z</time>
      </trkpt>
      <trkpt lat="43.50889" lon="6.27938">
        <ele>196</ele>
        <time>2022-06-17T08:35:24Z</time>
      </trkpt>
      <trkpt lat="43.50892" lon="6.27942">
        <ele>197</ele>
        <time>2022-06-17T08:35:29Z</time>
      </trkpt>
      <trkpt lat="43.50899" lon="6.27947">
        <ele>198</ele>
        <time>2022-06-17T08:35:40Z</time>
      </trkpt>
      <trkpt lat="43.50911" lon="6.27951">
        <ele>197</ele>
        <time>2022-06-17T08:35:54Z</time>
      </trkpt>
      <trkpt lat="43.50919" lon="6.27947">
        <ele>195</ele>
        <time>2022-06-17T08:36:06Z</time>
      </trkpt>
      <trkpt lat="43.50928" lon="6.27952">
        <ele>194</ele>
        <time>2022-06-17T08:36:18Z</time>
      </trkpt>
      <trkpt lat="43.5095" lon="6.27976">
        <ele>194</ele>
        <time>2022-06-17T08:36:48Z</time>
      </trkpt>
      <trkpt lat="43.50959" lon="6.27982">
        <ele>193</ele>
        <time>2022-06-17T08:36:59Z</time>
      </trkpt>
      <trkpt lat="43.50978" lon="6.27989">
        <ele>193</ele>
        <time>2022-06-17T08:37:18Z</time>
      </trkpt>
      <trkpt lat="43.50987" lon="6.27994">
        <ele>193</ele>
        <time>2022-06-17T08:37:28Z</time>
      </trkpt>
      <trkpt lat="43.50997" lon="6.27996">
        <ele>195</ele>
        <time>2022-06-17T08:37:39Z</time>
      </trkpt>
      <trkpt lat="43.51006" lon="6.28001">
        <ele>196</ele>
        <time>2022-06-17T08:37:48Z</time>
      </trkpt>
      <trkpt lat="43.51024" lon="6.2801">
        <ele>197</ele>
        <time>2022-06-17T08:38:07Z</time>
      </trkpt>
      <trkpt lat="43.51033" lon="6.28015">
        <ele>199</ele>
        <time>2022-06-17T08:38:16Z</time>
      </trkpt>
      <trkpt lat="43.51051" lon="6.28021">
        <ele>200</ele>
        <time>2022-06-17T08:38:34Z</time>
      </trkpt>
      <trkpt lat="43.51061" lon="6.28022">
        <ele>200</ele>
        <time>2022-06-17T08:38:44Z</time>
      </trkpt>
      <trkpt lat="43.5107" lon="6.28025">
        <ele>202</ele>
        <time>2022-06-17T08:38:53Z</time>
      </trkpt>
      <trkpt lat="43.5108" lon="6.28028">
        <ele>205</ele>
        <time>2022-06-17T08:39:02Z</time>
      </trkpt>
      <trkpt lat="43.51089" lon="6.28029">
        <ele>206</ele>
        <time>2022-06-17T08:39:11Z</time>
      </trkpt>
      <trkpt lat="43.51118" lon="6.28037">
        <ele>209</ele>
        <time>2022-06-17T08:39:39Z</time>
      </trkpt>
      <trkpt lat="43.51136" lon="6.28041">
        <ele>206</ele>
        <time>2022-06-17T08:39:57Z</time>
      </trkpt>
      <trkpt lat="43.51163" lon="6.28054">
        <ele>209</ele>
        <time>2022-06-17T08:40:22Z</time>
      </trkpt>
      <trkpt lat="43.51172" lon="6.28057">
        <ele>209</ele>
        <time>2022-06-17T08:40:29Z</time>
      </trkpt>
      <trkpt lat="43.5118" lon="6.28062">
        <ele>211</ele>
        <time>2022-06-17T08:40:41Z</time>
      </trkpt>
      <trkpt lat="43.51188" lon="6.2807">
        <ele>213</ele>
        <time>2022-06-17T08:41:37Z</time>
      </trkpt>
      <trkpt lat="43.51198" lon="6.28072">
        <ele>214</ele>
        <time>2022-06-17T08:41:47Z</time>
      </trkpt>
      <trkpt lat="43.51204" lon="6.28081">
        <ele>218</ele>
        <time>2022-06-17T08:42:00Z</time>
      </trkpt>
      <trkpt lat="43.51212" lon="6.28087">
        <ele>219</ele>
        <time>2022-06-17T08:42:12Z</time>
      </trkpt>
      <trkpt lat="43.51231" lon="6.28097">
        <ele>218</ele>
        <time>2022-06-17T08:42:35Z</time>
      </trkpt>
      <trkpt lat="43.51238" lon="6.28099">
        <ele>215</ele>
        <time>2022-06-17T08:42:45Z</time>
      </trkpt>
      <trkpt lat="43.51242" lon="6.28099">
        <ele>214</ele>
        <time>2022-06-17T08:42:49Z</time>
      </trkpt>
      <trkpt lat="43.51253" lon="6.28101">
        <ele>213</ele>
        <time>2022-06-17T08:43:01Z</time>
      </trkpt>
      <trkpt lat="43.51257" lon="6.28102">
        <ele>212</ele>
        <time>2022-06-17T08:43:05Z</time>
      </trkpt>
      <trkpt lat="43.51265" lon="6.28103">
        <ele>212</ele>
        <time>2022-06-17T08:43:14Z</time>
      </trkpt>
      <trkpt lat="43.51277" lon="6.28103">
        <ele>209</ele>
        <time>2022-06-17T08:43:27Z</time>
      </trkpt>
      <trkpt lat="43.51281" lon="6.28104">
        <ele>208</ele>
        <time>2022-06-17T08:43:31Z</time>
      </trkpt>
      <trkpt lat="43.51285" lon="6.28104">
        <ele>208</ele>
        <time>2022-06-17T08:43:35Z</time>
      </trkpt>
      <trkpt lat="43.51299" lon="6.28101">
        <ele>207</ele>
        <time>2022-06-17T08:43:53Z</time>
      </trkpt>
      <trkpt lat="43.51326" lon="6.28095">
        <ele>204</ele>
        <time>2022-06-17T08:44:28Z</time>
      </trkpt>
      <trkpt lat="43.51344" lon="6.28098">
        <ele>207</ele>
        <time>2022-06-17T08:44:55Z</time>
      </trkpt>
      <trkpt lat="43.51362" lon="6.28109">
        <ele>206</ele>
        <time>2022-06-17T08:45:16Z</time>
      </trkpt>
      <trkpt lat="43.51371" lon="6.28111">
        <ele>205</ele>
        <time>2022-06-17T08:45:27Z</time>
      </trkpt>
      <trkpt lat="43.51389" lon="6.2812">
        <ele>200</ele>
        <time>2022-06-17T08:45:46Z</time>
      </trkpt>
      <trkpt lat="43.51398" lon="6.28123">
        <ele>197</ele>
        <time>2022-06-17T08:45:56Z</time>
      </trkpt>
      <trkpt lat="43.51408" lon="6.28127">
        <ele>197</ele>
        <time>2022-06-17T08:46:05Z</time>
      </trkpt>
      <trkpt lat="43.51417" lon="6.28129">
        <ele>197</ele>
        <time>2022-06-17T08:46:15Z</time>
      </trkpt>
      <trkpt lat="43.51436" lon="6.2813">
        <ele>197</ele>
        <time>2022-06-17T08:46:34Z</time>
      </trkpt>
      <trkpt lat="43.51474" lon="6.28135">
        <ele>197</ele>
        <time>2022-06-17T08:47:09Z</time>
      </trkpt>
      <trkpt lat="43.51482" lon="6.28138">
        <ele>198</ele>
        <time>2022-06-17T08:47:17Z</time>
      </trkpt>
      <trkpt lat="43.51491" lon="6.28144">
        <ele>203</ele>
        <time>2022-06-17T08:48:05Z</time>
      </trkpt>
      <trkpt lat="43.51501" lon="6.28144">
        <ele>202</ele>
        <time>2022-06-17T08:48:18Z</time>
      </trkpt>
      <trkpt lat="43.51509" lon="6.28149">
        <ele>205</ele>
        <time>2022-06-17T08:48:33Z</time>
      </trkpt>
      <trkpt lat="43.51516" lon="6.28158">
        <ele>213</ele>
        <time>2022-06-17T08:48:58Z</time>
      </trkpt>
      <trkpt lat="43.51518" lon="6.2817">
        <ele>212</ele>
        <time>2022-06-17T08:49:09Z</time>
      </trkpt>
      <trkpt lat="43.51523" lon="6.28181">
        <ele>211</ele>
        <time>2022-06-17T08:49:20Z</time>
      </trkpt>
      <trkpt lat="43.51548" lon="6.28199">
        <ele>213</ele>
        <time>2022-06-17T08:49:52Z</time>
      </trkpt>
      <trkpt lat="43.51557" lon="6.28201">
        <ele>214</ele>
        <time>2022-06-17T08:50:05Z</time>
      </trkpt>
      <trkpt lat="43.51567" lon="6.28202">
        <ele>216</ele>
        <time>2022-06-17T08:50:16Z</time>
      </trkpt>
      <trkpt lat="43.51584" lon="6.28209">
        <ele>219</ele>
        <time>2022-06-17T08:50:37Z</time>
      </trkpt>
      <trkpt lat="43.51593" lon="6.2821">
        <ele>220</ele>
        <time>2022-06-17T08:51:00Z</time>
      </trkpt>
      <trkpt lat="43.51595" lon="6.28216">
        <ele>221</ele>
        <time>2022-06-17T08:53:55Z</time>
      </trkpt>
      <trkpt lat="43.51597" lon="6.28219">
        <ele>220</ele>
        <time>2022-06-17T08:54:00Z</time>
      </trkpt>
      <trkpt lat="43.51599" lon="6.28224">
        <ele>220</ele>
        <time>2022-06-17T08:54:05Z</time>
      </trkpt>
      <trkpt lat="43.51605" lon="6.28238">
        <ele>220</ele>
        <time>2022-06-17T08:54:19Z</time>
      </trkpt>
      <trkpt lat="43.51606" lon="6.28243">
        <ele>219</ele>
        <time>2022-06-17T08:54:24Z</time>
      </trkpt>
      <trkpt lat="43.51606" lon="6.28249">
        <ele>218</ele>
        <time>2022-06-17T08:54:29Z</time>
      </trkpt>
      <trkpt lat="43.51604" lon="6.28259">
        <ele>217</ele>
        <time>2022-06-17T08:54:39Z</time>
      </trkpt>
      <trkpt lat="43.51603" lon="6.28264">
        <ele>217</ele>
        <time>2022-06-17T08:54:44Z</time>
      </trkpt>
      <trkpt lat="43.51601" lon="6.28274">
        <ele>215</ele>
        <time>2022-06-17T08:54:52Z</time>
      </trkpt>
      <trkpt lat="43.51599" lon="6.28279">
        <ele>214</ele>
        <time>2022-06-17T08:54:56Z</time>
      </trkpt>
      <trkpt lat="43.51598" lon="6.28283">
        <ele>213</ele>
        <time>2022-06-17T08:55:00Z</time>
      </trkpt>
      <trkpt lat="43.51593" lon="6.28293">
        <ele>210</ele>
        <time>2022-06-17T08:55:10Z</time>
      </trkpt>
      <trkpt lat="43.51591" lon="6.28297">
        <ele>210</ele>
        <time>2022-06-17T08:55:14Z</time>
      </trkpt>
      <trkpt lat="43.5159" lon="6.28303">
        <ele>211</ele>
        <time>2022-06-17T08:55:18Z</time>
      </trkpt>
      <trkpt lat="43.51593" lon="6.28307">
        <ele>211</ele>
        <time>2022-06-17T08:55:23Z</time>
      </trkpt>
      <trkpt lat="43.51597" lon="6.28306">
        <ele>212</ele>
        <time>2022-06-17T08:55:27Z</time>
      </trkpt>
      <trkpt lat="43.51615" lon="6.28295">
        <ele>211</ele>
        <time>2022-06-17T08:55:50Z</time>
      </trkpt>
      <trkpt lat="43.51618" lon="6.28294">
        <ele>211</ele>
        <time>2022-06-17T08:55:54Z</time>
      </trkpt>
      <trkpt lat="43.51622" lon="6.28291">
        <ele>211</ele>
        <time>2022-06-17T08:55:58Z</time>
      </trkpt>
      <trkpt lat="43.51641" lon="6.2828">
        <ele>206</ele>
        <time>2022-06-17T08:56:18Z</time>
      </trkpt>
      <trkpt lat="43.51648" lon="6.28275">
        <ele>204</ele>
        <time>2022-06-17T08:56:26Z</time>
      </trkpt>
      <trkpt lat="43.51661" lon="6.28269">
        <ele>205</ele>
        <time>2022-06-17T08:56:38Z</time>
      </trkpt>
      <trkpt lat="43.51665" lon="6.28269">
        <ele>204</ele>
        <time>2022-06-17T08:56:42Z</time>
      </trkpt>
      <trkpt lat="43.51668" lon="6.2827">
        <ele>204</ele>
        <time>2022-06-17T08:56:45Z</time>
      </trkpt>
      <trkpt lat="43.51672" lon="6.28271">
        <ele>203</ele>
        <time>2022-06-17T08:56:48Z</time>
      </trkpt>
      <trkpt lat="43.51677" lon="6.2828">
        <ele>204</ele>
        <time>2022-06-17T08:56:55Z</time>
      </trkpt>
      <trkpt lat="43.5168" lon="6.28288">
        <ele>205</ele>
        <time>2022-06-17T08:57:01Z</time>
      </trkpt>
      <trkpt lat="43.5168" lon="6.28295">
        <ele>206</ele>
        <time>2022-06-17T08:57:05Z</time>
      </trkpt>
      <trkpt lat="43.51678" lon="6.28301">
        <ele>207</ele>
        <time>2022-06-17T08:57:09Z</time>
      </trkpt>
      <trkpt lat="43.51655" lon="6.28341">
        <ele>204</ele>
        <time>2022-06-17T08:57:45Z</time>
      </trkpt>
      <trkpt lat="43.51649" lon="6.28351">
        <ele>203</ele>
        <time>2022-06-17T08:57:53Z</time>
      </trkpt>
      <trkpt lat="43.51643" lon="6.28362">
        <ele>203</ele>
        <time>2022-06-17T08:58:01Z</time>
      </trkpt>
      <trkpt lat="43.51639" lon="6.28371">
        <ele>202</ele>
        <time>2022-06-17T08:58:09Z</time>
      </trkpt>
      <trkpt lat="43.51633" lon="6.2838">
        <ele>200</ele>
        <time>2022-06-17T08:58:17Z</time>
      </trkpt>
      <trkpt lat="43.5163" lon="6.28391">
        <ele>201</ele>
        <time>2022-06-17T08:58:25Z</time>
      </trkpt>
      <trkpt lat="43.51627" lon="6.28399">
        <ele>201</ele>
        <time>2022-06-17T08:58:31Z</time>
      </trkpt>
      <trkpt lat="43.51625" lon="6.28403">
        <ele>201</ele>
        <time>2022-06-17T08:58:34Z</time>
      </trkpt>
      <trkpt lat="43.51613" lon="6.28431">
        <ele>200</ele>
        <time>2022-06-17T08:58:53Z</time>
      </trkpt>
      <trkpt lat="43.5161" lon="6.28435">
        <ele>200</ele>
        <time>2022-06-17T08:58:56Z</time>
      </trkpt>
      <trkpt lat="43.51606" lon="6.28444">
        <ele>200</ele>
        <time>2022-06-17T08:59:03Z</time>
      </trkpt>
      <trkpt lat="43.51582" lon="6.28486">
        <ele>202</ele>
        <time>2022-06-17T08:59:34Z</time>
      </trkpt>
      <trkpt lat="43.51579" lon="6.28491">
        <ele>203</ele>
        <time>2022-06-17T08:59:37Z</time>
      </trkpt>
      <trkpt lat="43.51571" lon="6.28502">
        <ele>207</ele>
        <time>2022-06-17T08:59:46Z</time>
      </trkpt>
      <trkpt lat="43.51569" lon="6.28507">
        <ele>208</ele>
        <time>2022-06-17T08:59:49Z</time>
      </trkpt>
      <trkpt lat="43.51546" lon="6.28548">
        <ele>212</ele>
        <time>2022-06-17T09:00:21Z</time>
      </trkpt>
      <trkpt lat="43.51538" lon="6.28568">
        <ele>213</ele>
        <time>2022-06-17T09:00:35Z</time>
      </trkpt>
      <trkpt lat="43.51533" lon="6.28583">
        <ele>210</ele>
        <time>2022-06-17T09:00:45Z</time>
      </trkpt>
      <trkpt lat="43.51531" lon="6.28587">
        <ele>209</ele>
        <time>2022-06-17T09:00:48Z</time>
      </trkpt>
      <trkpt lat="43.51527" lon="6.28603">
        <ele>209</ele>
        <time>2022-06-17T09:00:58Z</time>
      </trkpt>
      <trkpt lat="43.51525" lon="6.28607">
        <ele>209</ele>
        <time>2022-06-17T09:01:01Z</time>
      </trkpt>
      <trkpt lat="43.5152" lon="6.28638">
        <ele>211</ele>
        <time>2022-06-17T09:01:19Z</time>
      </trkpt>
      <trkpt lat="43.51517" lon="6.28649">
        <ele>211</ele>
        <time>2022-06-17T09:01:25Z</time>
      </trkpt>
      <trkpt lat="43.51516" lon="6.28655">
        <ele>212</ele>
        <time>2022-06-17T09:01:28Z</time>
      </trkpt>
      <trkpt lat="43.51518" lon="6.2866">
        <ele>212</ele>
        <time>2022-06-17T09:01:31Z</time>
      </trkpt>
      <trkpt lat="43.51523" lon="6.28669">
        <ele>212</ele>
        <time>2022-06-17T09:01:39Z</time>
      </trkpt>
    </trkseg>
  </trk>
</gpx>